sensor_id;sensor_type;location;lat;lon;timestamp;P1;durP1;ratioP1;P2;durP2;ratioP2
64031;SDS011;50278;47.796;11.968;2023-04-21T00:00:03;11.82;;;8.20;;
64031;SDS011;50278;47.796;11.968;2023-04-21T00:02:32;12.50;;;8.63;;
64031;SDS011;50278;47.796;11.968;2023-04-21T00:05:03;13.75;;;7.85;;
64031;SDS011;50278;47.796;11.968;2023-04-21T00:07:34;11.48;;;8.40;;
64031;SDS011;50278;47.796;11.968;2023-04-21T00:10:02;10.73;;;8.00;;
64031;SDS011;50278;47.796;11.968;2023-04-21T00:12:30;13.30;;;9.38;;
64031;SDS011;50278;47.796;11.968;2023-04-21T00:14:55;12.10;;;9.27;;
64031;SDS011;50278;47.796;11.968;2023-04-21T00:17:20;12.93;;;9.60;;
64031;SDS011;50278;47.796;11.968;2023-04-21T00:19:46;12.27;;;9.15;;
64031;SDS011;50278;47.796;11.968;2023-04-21T00:22:11;13.55;;;9.57;;
64031;SDS011;50278;47.796;11.968;2023-04-21T00:24:38;13.70;;;10.20;;
64031;SDS011;50278;47.796;11.968;2023-04-21T00:27:04;11.75;;;8.82;;
64031;SDS011;50278;47.796;11.968;2023-04-21T00:29:30;11.50;;;9.15;;
64031;SDS011;50278;47.796;11.968;2023-04-21T00:31:56;12.55;;;8.70;;
64031;SDS011;50278;47.796;11.968;2023-04-21T00:34:22;12.27;;;9.05;;
64031;SDS011;50278;47.796;11.968;2023-04-21T00:36:47;12.75;;;9.65;;
64031;SDS011;50278;47.796;11.968;2023-04-21T00:39:13;11.43;;;9.18;;
64031;SDS011;50278;47.796;11.968;2023-04-21T00:41:38;13.63;;;10.18;;
64031;SDS011;50278;47.796;11.968;2023-04-21T00:44:08;17.42;;;10.38;;
64031;SDS011;50278;47.796;11.968;2023-04-21T00:46:35;11.45;;;8.30;;
64031;SDS011;50278;47.796;11.968;2023-04-21T00:49:05;11.77;;;8.02;;
64031;SDS011;50278;47.796;11.968;2023-04-21T00:51:32;11.27;;;7.95;;
64031;SDS011;50278;47.796;11.968;2023-04-21T00:53:59;16.20;;;10.48;;
64031;SDS011;50278;47.796;11.968;2023-04-21T00:56:27;17.13;;;10.50;;
64031;SDS011;50278;47.796;11.968;2023-04-21T00:58:56;14.93;;;9.95;;
64031;SDS011;50278;47.796;11.968;2023-04-21T01:01:22;16.83;;;11.65;;
64031;SDS011;50278;47.796;11.968;2023-04-21T01:03:48;15.13;;;11.10;;
64031;SDS011;50278;47.796;11.968;2023-04-21T01:06:14;14.77;;;10.40;;
64031;SDS011;50278;47.796;11.968;2023-04-21T01:08:40;15.13;;;10.15;;
64031;SDS011;50278;47.796;11.968;2023-04-21T01:11:12;13.65;;;10.63;;
64031;SDS011;50278;47.796;11.968;2023-04-21T01:13:39;14.77;;;11.20;;
64031;SDS011;50278;47.796;11.968;2023-04-21T01:16:05;13.05;;;9.70;;
64031;SDS011;50278;47.796;11.968;2023-04-21T01:18:32;16.27;;;8.32;;
64031;SDS011;50278;47.796;11.968;2023-04-21T01:20:58;9.75;;;7.57;;
64031;SDS011;50278;47.796;11.968;2023-04-21T01:23:24;9.32;;;7.38;;
64031;SDS011;50278;47.796;11.968;2023-04-21T01:25:50;11.63;;;7.68;;
64031;SDS011;50278;47.796;11.968;2023-04-21T01:28:22;11.45;;;8.38;;
64031;SDS011;50278;47.796;11.968;2023-04-21T01:30:49;10.55;;;7.85;;
64031;SDS011;50278;47.796;11.968;2023-04-21T01:33:14;11.52;;;7.88;;
64031;SDS011;50278;47.796;11.968;2023-04-21T01:35:40;10.15;;;7.15;;
64031;SDS011;50278;47.796;11.968;2023-04-21T01:38:08;9.27;;;7.10;;
64031;SDS011;50278;47.796;11.968;2023-04-21T01:40:33;9.88;;;8.05;;
64031;SDS011;50278;47.796;11.968;2023-04-21T01:43:00;14.07;;;8.43;;
64031;SDS011;50278;47.796;11.968;2023-04-21T01:45:25;10.32;;;7.18;;
64031;SDS011;50278;47.796;11.968;2023-04-21T01:47:51;12.80;;;7.70;;
64031;SDS011;50278;47.796;11.968;2023-04-21T01:50:16;8.80;;;7.28;;
64031;SDS011;50278;47.796;11.968;2023-04-21T01:52:42;13.05;;;9.35;;
64031;SDS011;50278;47.796;11.968;2023-04-21T01:55:08;14.27;;;10.10;;
64031;SDS011;50278;47.796;11.968;2023-04-21T01:57:34;16.83;;;10.73;;
64031;SDS011;50278;47.796;11.968;2023-04-21T02:00:00;13.45;;;9.98;;
64031;SDS011;50278;47.796;11.968;2023-04-21T02:02:26;12.55;;;9.50;;
64031;SDS011;50278;47.796;11.968;2023-04-21T02:04:52;10.80;;;8.43;;
64031;SDS011;50278;47.796;11.968;2023-04-21T02:07:17;11.10;;;7.78;;
64031;SDS011;50278;47.796;11.968;2023-04-21T02:09:43;10.88;;;7.68;;
64031;SDS011;50278;47.796;11.968;2023-04-21T02:12:08;11.38;;;8.07;;
64031;SDS011;50278;47.796;11.968;2023-04-21T02:14:35;14.38;;;9.18;;
64031;SDS011;50278;47.796;11.968;2023-04-21T02:17:01;12.18;;;9.48;;
64031;SDS011;50278;47.796;11.968;2023-04-21T02:19:27;12.30;;;8.98;;
64031;SDS011;50278;47.796;11.968;2023-04-21T02:21:53;15.30;;;9.93;;
64031;SDS011;50278;47.796;11.968;2023-04-21T02:24:20;13.32;;;10.65;;
64031;SDS011;50278;47.796;11.968;2023-04-21T02:26:46;13.85;;;9.52;;
64031;SDS011;50278;47.796;11.968;2023-04-21T02:29:11;13.95;;;9.65;;
64031;SDS011;50278;47.796;11.968;2023-04-21T02:31:37;14.93;;;9.43;;
64031;SDS011;50278;47.796;11.968;2023-04-21T02:34:04;11.80;;;8.82;;
64031;SDS011;50278;47.796;11.968;2023-04-21T02:36:29;11.85;;;8.32;;
64031;SDS011;50278;47.796;11.968;2023-04-21T02:38:56;12.20;;;8.85;;
64031;SDS011;50278;47.796;11.968;2023-04-21T02:41:22;14.05;;;9.55;;
64031;SDS011;50278;47.796;11.968;2023-04-21T02:43:48;17.40;;;10.38;;
64031;SDS011;50278;47.796;11.968;2023-04-21T02:46:14;15.93;;;10.35;;
64031;SDS011;50278;47.796;11.968;2023-04-21T02:48:39;14.13;;;9.70;;
64031;SDS011;50278;47.796;11.968;2023-04-21T02:51:09;14.00;;;10.32;;
64031;SDS011;50278;47.796;11.968;2023-04-21T02:53:36;13.70;;;10.03;;
64031;SDS011;50278;47.796;11.968;2023-04-21T02:56:01;14.43;;;10.05;;
64031;SDS011;50278;47.796;11.968;2023-04-21T02:58:29;12.73;;;9.13;;
64031;SDS011;50278;47.796;11.968;2023-04-21T03:00:55;9.90;;;7.47;;
64031;SDS011;50278;47.796;11.968;2023-04-21T03:03:21;11.20;;;7.50;;
64031;SDS011;50278;47.796;11.968;2023-04-21T03:05:47;12.25;;;7.82;;
64031;SDS011;50278;47.796;11.968;2023-04-21T03:08:13;13.48;;;9.23;;
64031;SDS011;50278;47.796;11.968;2023-04-21T03:10:38;13.60;;;9.65;;
64031;SDS011;50278;47.796;11.968;2023-04-21T03:13:04;14.70;;;10.70;;
64031;SDS011;50278;47.796;11.968;2023-04-21T03:15:30;12.63;;;9.73;;
64031;SDS011;50278;47.796;11.968;2023-04-21T03:17:56;15.35;;;11.30;;
64031;SDS011;50278;47.796;11.968;2023-04-21T03:20:24;17.07;;;10.70;;
64031;SDS011;50278;47.796;11.968;2023-04-21T03:22:51;17.88;;;11.77;;
64031;SDS011;50278;47.796;11.968;2023-04-21T03:25:18;20.30;;;13.90;;
64031;SDS011;50278;47.796;11.968;2023-04-21T03:27:43;17.05;;;12.52;;
64031;SDS011;50278;47.796;11.968;2023-04-21T03:30:09;17.55;;;12.57;;
64031;SDS011;50278;47.796;11.968;2023-04-21T03:32:35;20.25;;;13.20;;
64031;SDS011;50278;47.796;11.968;2023-04-21T03:35:01;14.32;;;10.65;;
64031;SDS011;50278;47.796;11.968;2023-04-21T03:37:27;15.13;;;10.25;;
64031;SDS011;50278;47.796;11.968;2023-04-21T03:39:52;16.98;;;11.77;;
64031;SDS011;50278;47.796;11.968;2023-04-21T03:42:18;17.67;;;11.55;;
64031;SDS011;50278;47.796;11.968;2023-04-21T03:44:44;16.25;;;12.50;;
64031;SDS011;50278;47.796;11.968;2023-04-21T03:47:09;16.85;;;13.48;;
64031;SDS011;50278;47.796;11.968;2023-04-21T03:49:35;16.05;;;12.05;;
64031;SDS011;50278;47.796;11.968;2023-04-21T03:52:00;16.77;;;11.45;;
64031;SDS011;50278;47.796;11.968;2023-04-21T03:54:26;17.25;;;11.00;;
64031;SDS011;50278;47.796;11.968;2023-04-21T03:56:51;15.07;;;10.27;;
64031;SDS011;50278;47.796;11.968;2023-04-21T03:59:17;17.00;;;11.68;;
64031;SDS011;50278;47.796;11.968;2023-04-21T04:01:43;16.33;;;11.75;;
64031;SDS011;50278;47.796;11.968;2023-04-21T04:04:08;19.02;;;13.15;;
64031;SDS011;50278;47.796;11.968;2023-04-21T04:06:34;18.98;;;13.85;;
64031;SDS011;50278;47.796;11.968;2023-04-21T04:09:00;17.02;;;13.32;;
64031;SDS011;50278;47.796;11.968;2023-04-21T04:11:28;18.15;;;13.40;;
64031;SDS011;50278;47.796;11.968;2023-04-21T04:13:59;17.73;;;13.82;;
64031;SDS011;50278;47.796;11.968;2023-04-21T04:16:26;18.23;;;14.75;;
64031;SDS011;50278;47.796;11.968;2023-04-21T04:18:52;16.52;;;13.07;;
64031;SDS011;50278;47.796;11.968;2023-04-21T04:21:18;15.75;;;12.27;;
64031;SDS011;50278;47.796;11.968;2023-04-21T04:23:44;17.15;;;11.82;;
64031;SDS011;50278;47.796;11.968;2023-04-21T04:26:10;20.63;;;13.07;;
64031;SDS011;50278;47.796;11.968;2023-04-21T04:28:35;15.43;;;12.02;;
64031;SDS011;50278;47.796;11.968;2023-04-21T04:31:01;20.27;;;13.02;;
64031;SDS011;50278;47.796;11.968;2023-04-21T04:33:27;20.23;;;13.98;;
64031;SDS011;50278;47.796;11.968;2023-04-21T04:35:53;20.55;;;13.70;;
64031;SDS011;50278;47.796;11.968;2023-04-21T04:38:18;16.27;;;12.05;;
64031;SDS011;50278;47.796;11.968;2023-04-21T04:40:44;15.40;;;11.35;;
64031;SDS011;50278;47.796;11.968;2023-04-21T04:43:17;17.05;;;12.20;;
64031;SDS011;50278;47.796;11.968;2023-04-21T04:45:43;18.40;;;11.70;;
64031;SDS011;50278;47.796;11.968;2023-04-21T04:48:09;15.60;;;11.00;;
64031;SDS011;50278;47.796;11.968;2023-04-21T04:50:35;17.98;;;13.02;;
64031;SDS011;50278;47.796;11.968;2023-04-21T04:53:00;18.88;;;12.98;;
64031;SDS011;50278;47.796;11.968;2023-04-21T04:55:26;16.55;;;12.05;;
64031;SDS011;50278;47.796;11.968;2023-04-21T04:57:51;15.02;;;11.73;;
64031;SDS011;50278;47.796;11.968;2023-04-21T05:00:17;16.67;;;11.30;;
64031;SDS011;50278;47.796;11.968;2023-04-21T05:02:43;16.38;;;11.70;;
64031;SDS011;50278;47.796;11.968;2023-04-21T05:05:08;18.15;;;12.65;;
64031;SDS011;50278;47.796;11.968;2023-04-21T05:07:34;21.40;;;14.77;;
64031;SDS011;50278;47.796;11.968;2023-04-21T05:09:59;17.42;;;13.70;;
64031;SDS011;50278;47.796;11.968;2023-04-21T05:12:25;15.50;;;10.98;;
64031;SDS011;50278;47.796;11.968;2023-04-21T05:14:50;15.65;;;11.32;;
64031;SDS011;50278;47.796;11.968;2023-04-21T05:17:16;13.70;;;11.07;;
64031;SDS011;50278;47.796;11.968;2023-04-21T05:19:41;12.77;;;10.68;;
64031;SDS011;50278;47.796;11.968;2023-04-21T05:22:07;15.25;;;11.25;;
64031;SDS011;50278;47.796;11.968;2023-04-21T05:24:33;17.27;;;12.02;;
64031;SDS011;50278;47.796;11.968;2023-04-21T05:26:59;19.08;;;11.68;;
64031;SDS011;50278;47.796;11.968;2023-04-21T05:29:25;13.43;;;10.23;;
64031;SDS011;50278;47.796;11.968;2023-04-21T05:31:51;13.23;;;10.48;;
64031;SDS011;50278;47.796;11.968;2023-04-21T05:34:16;13.25;;;10.02;;
64031;SDS011;50278;47.796;11.968;2023-04-21T05:36:42;14.55;;;11.98;;
64031;SDS011;50278;47.796;11.968;2023-04-21T05:39:07;14.52;;;12.10;;
64031;SDS011;50278;47.796;11.968;2023-04-21T05:41:33;13.90;;;10.90;;
64031;SDS011;50278;47.796;11.968;2023-04-21T05:43:59;14.30;;;11.35;;
64031;SDS011;50278;47.796;11.968;2023-04-21T05:46:24;16.67;;;11.63;;
64031;SDS011;50278;47.796;11.968;2023-04-21T05:48:50;22.02;;;11.55;;
64031;SDS011;50278;47.796;11.968;2023-04-21T05:51:15;14.38;;;10.73;;
64031;SDS011;50278;47.796;11.968;2023-04-21T05:53:41;13.95;;;10.90;;
64031;SDS011;50278;47.796;11.968;2023-04-21T05:56:08;15.25;;;11.15;;
64031;SDS011;50278;47.796;11.968;2023-04-21T05:58:34;14.10;;;11.50;;
64031;SDS011;50278;47.796;11.968;2023-04-21T06:01:00;14.43;;;11.27;;
64031;SDS011;50278;47.796;11.968;2023-04-21T06:03:26;14.55;;;11.23;;
64031;SDS011;50278;47.796;11.968;2023-04-21T06:05:52;13.98;;;11.10;;
64031;SDS011;50278;47.796;11.968;2023-04-21T06:08:19;14.20;;;11.35;;
64031;SDS011;50278;47.796;11.968;2023-04-21T06:10:44;13.88;;;11.45;;
64031;SDS011;50278;47.796;11.968;2023-04-21T06:13:10;13.52;;;11.13;;
64031;SDS011;50278;47.796;11.968;2023-04-21T06:15:35;15.70;;;11.88;;
64031;SDS011;50278;47.796;11.968;2023-04-21T06:18:01;13.05;;;10.57;;
64031;SDS011;50278;47.796;11.968;2023-04-21T06:20:26;14.02;;;11.48;;
64031;SDS011;50278;47.796;11.968;2023-04-21T06:22:52;16.55;;;11.00;;
64031;SDS011;50278;47.796;11.968;2023-04-21T06:25:18;14.57;;;11.48;;
64031;SDS011;50278;47.796;11.968;2023-04-21T06:27:43;15.48;;;12.25;;
64031;SDS011;50278;47.796;11.968;2023-04-21T06:30:10;13.70;;;11.38;;
64031;SDS011;50278;47.796;11.968;2023-04-21T06:32:36;12.55;;;10.18;;
64031;SDS011;50278;47.796;11.968;2023-04-21T06:35:01;13.50;;;10.75;;
64031;SDS011;50278;47.796;11.968;2023-04-21T06:37:27;15.52;;;11.70;;
64031;SDS011;50278;47.796;11.968;2023-04-21T06:39:52;12.48;;;10.32;;
64031;SDS011;50278;47.796;11.968;2023-04-21T06:42:18;11.60;;;10.25;;
64031;SDS011;50278;47.796;11.968;2023-04-21T06:44:43;11.80;;;10.13;;
64031;SDS011;50278;47.796;11.968;2023-04-21T06:47:09;15.38;;;9.73;;
64031;SDS011;50278;47.796;11.968;2023-04-21T06:49:35;12.80;;;10.25;;
64031;SDS011;50278;47.796;11.968;2023-04-21T06:52:01;11.50;;;9.48;;
64031;SDS011;50278;47.796;11.968;2023-04-21T06:54:28;11.85;;;9.30;;
64031;SDS011;50278;47.796;11.968;2023-04-21T06:56:54;11.25;;;9.18;;
64031;SDS011;50278;47.796;11.968;2023-04-21T06:59:19;11.77;;;9.27;;
64031;SDS011;50278;47.796;11.968;2023-04-21T07:01:45;10.32;;;8.73;;
64031;SDS011;50278;47.796;11.968;2023-04-21T07:04:13;12.05;;;9.98;;
64031;SDS011;50278;47.796;11.968;2023-04-21T07:06:38;11.43;;;8.82;;
64031;SDS011;50278;47.796;11.968;2023-04-21T07:09:04;11.57;;;10.00;;
64031;SDS011;50278;47.796;11.968;2023-04-21T07:11:30;11.85;;;10.27;;
64031;SDS011;50278;47.796;11.968;2023-04-21T07:13:55;11.50;;;9.27;;
64031;SDS011;50278;47.796;11.968;2023-04-21T07:16:21;13.85;;;9.45;;
64031;SDS011;50278;47.796;11.968;2023-04-21T07:18:48;10.82;;;8.63;;
64031;SDS011;50278;47.796;11.968;2023-04-21T07:21:13;13.90;;;9.93;;
64031;SDS011;50278;47.796;11.968;2023-04-21T07:23:39;13.10;;;9.45;;
64031;SDS011;50278;47.796;11.968;2023-04-21T07:26:04;13.15;;;9.10;;
64031;SDS011;50278;47.796;11.968;2023-04-21T07:28:30;10.50;;;8.88;;
64031;SDS011;50278;47.796;11.968;2023-04-21T07:30:55;11.43;;;9.07;;
64031;SDS011;50278;47.796;11.968;2023-04-21T07:33:21;11.60;;;8.70;;
64031;SDS011;50278;47.796;11.968;2023-04-21T07:35:48;11.23;;;9.07;;
64031;SDS011;50278;47.796;11.968;2023-04-21T07:38:20;12.90;;;8.73;;
64031;SDS011;50278;47.796;11.968;2023-04-21T07:40:46;11.23;;;9.20;;
64031;SDS011;50278;47.796;11.968;2023-04-21T07:43:11;13.10;;;10.57;;
64031;SDS011;50278;47.796;11.968;2023-04-21T07:45:37;13.50;;;10.05;;
64031;SDS011;50278;47.796;11.968;2023-04-21T07:48:02;11.25;;;8.63;;
64031;SDS011;50278;47.796;11.968;2023-04-21T07:50:30;10.15;;;8.20;;
64031;SDS011;50278;47.796;11.968;2023-04-21T07:52:55;10.35;;;8.43;;
64031;SDS011;50278;47.796;11.968;2023-04-21T07:55:21;12.50;;;9.50;;
64031;SDS011;50278;47.796;11.968;2023-04-21T07:57:46;10.25;;;8.25;;
64031;SDS011;50278;47.796;11.968;2023-04-21T08:00:13;9.32;;;7.97;;
64031;SDS011;50278;47.796;11.968;2023-04-21T08:02:39;12.20;;;7.97;;
64031;SDS011;50278;47.796;11.968;2023-04-21T08:05:05;9.90;;;8.30;;
64031;SDS011;50278;47.796;11.968;2023-04-21T08:07:31;9.77;;;7.68;;
64031;SDS011;50278;47.796;11.968;2023-04-21T08:09:56;8.48;;;7.55;;
64031;SDS011;50278;47.796;11.968;2023-04-21T08:12:22;9.23;;;8.23;;
64031;SDS011;50278;47.796;11.968;2023-04-21T08:14:47;9.98;;;8.45;;
64031;SDS011;50278;47.796;11.968;2023-04-21T08:17:13;10.15;;;8.05;;
64031;SDS011;50278;47.796;11.968;2023-04-21T08:19:38;11.90;;;8.45;;
64031;SDS011;50278;47.796;11.968;2023-04-21T08:22:04;9.23;;;7.28;;
64031;SDS011;50278;47.796;11.968;2023-04-21T08:24:29;11.57;;;7.82;;
64031;SDS011;50278;47.796;11.968;2023-04-21T08:26:55;14.80;;;9.27;;
64031;SDS011;50278;47.796;11.968;2023-04-21T08:29:21;9.77;;;8.73;;
64031;SDS011;50278;47.796;11.968;2023-04-21T08:31:47;9.70;;;7.68;;
64031;SDS011;50278;47.796;11.968;2023-04-21T08:34:13;8.65;;;7.75;;
64031;SDS011;50278;47.796;11.968;2023-04-21T08:36:38;13.15;;;7.90;;
64031;SDS011;50278;47.796;11.968;2023-04-21T08:39:05;9.13;;;7.32;;
64031;SDS011;50278;47.796;11.968;2023-04-21T08:41:31;8.77;;;7.70;;
64031;SDS011;50278;47.796;11.968;2023-04-21T08:43:56;10.63;;;7.30;;
64031;SDS011;50278;47.796;11.968;2023-04-21T08:46:22;11.85;;;7.60;;
64031;SDS011;50278;47.796;11.968;2023-04-21T08:48:48;10.85;;;7.75;;
64031;SDS011;50278;47.796;11.968;2023-04-21T08:51:17;10.25;;;7.55;;
64031;SDS011;50278;47.796;11.968;2023-04-21T08:53:46;20.67;;;8.10;;
64031;SDS011;50278;47.796;11.968;2023-04-21T08:56:12;9.52;;;8.05;;
64031;SDS011;50278;47.796;11.968;2023-04-21T08:58:37;10.55;;;7.32;;
64031;SDS011;50278;47.796;11.968;2023-04-21T09:01:03;7.22;;;6.53;;
64031;SDS011;50278;47.796;11.968;2023-04-21T09:03:28;10.88;;;6.45;;
64031;SDS011;50278;47.796;11.968;2023-04-21T09:06:02;7.40;;;5.72;;
64031;SDS011;50278;47.796;11.968;2023-04-21T09:08:30;6.50;;;5.70;;
64031;SDS011;50278;47.796;11.968;2023-04-21T09:10:57;8.23;;;5.90;;
64031;SDS011;50278;47.796;11.968;2023-04-21T09:16:02;8.85;;;6.78;;
64031;SDS011;50278;47.796;11.968;2023-04-21T09:18:30;8.40;;;6.28;;
64031;SDS011;50278;47.796;11.968;2023-04-21T09:26:11;8.10;;;6.47;;
64031;SDS011;50278;47.796;11.968;2023-04-21T09:28:40;8.70;;;6.68;;
64031;SDS011;50278;47.796;11.968;2023-04-21T09:31:18;8.90;;;7.60;;
64031;SDS011;50278;47.796;11.968;2023-04-21T09:33:45;49.60;;;9.93;;
64031;SDS011;50278;47.796;11.968;2023-04-21T09:36:16;9.38;;;6.85;;
64031;SDS011;50278;47.796;11.968;2023-04-21T09:38:49;8.45;;;6.30;;
64031;SDS011;50278;47.796;11.968;2023-04-21T09:41:19;10.02;;;7.30;;
64031;SDS011;50278;47.796;11.968;2023-04-21T09:43:46;8.27;;;6.80;;
64031;SDS011;50278;47.796;11.968;2023-04-21T09:46:12;7.53;;;6.72;;
64031;SDS011;50278;47.796;11.968;2023-04-21T09:48:42;8.20;;;6.88;;
64031;SDS011;50278;47.796;11.968;2023-04-21T09:51:10;8.63;;;6.78;;
64031;SDS011;50278;47.796;11.968;2023-04-21T09:53:37;7.43;;;6.32;;
64031;SDS011;50278;47.796;11.968;2023-04-21T09:56:05;8.95;;;6.35;;
64031;SDS011;50278;47.796;11.968;2023-04-21T09:58:37;6.50;;;5.68;;
64031;SDS011;50278;47.796;11.968;2023-04-21T10:01:07;6.82;;;6.10;;
64031;SDS011;50278;47.796;11.968;2023-04-21T10:03:33;7.03;;;5.70;;
64031;SDS011;50278;47.796;11.968;2023-04-21T10:06:02;7.30;;;5.95;;
64031;SDS011;50278;47.796;11.968;2023-04-21T10:08:29;6.30;;;5.70;;
64031;SDS011;50278;47.796;11.968;2023-04-21T10:10:55;8.05;;;6.30;;
64031;SDS011;50278;47.796;11.968;2023-04-21T10:13:20;6.22;;;5.63;;
64031;SDS011;50278;47.796;11.968;2023-04-21T10:15:46;7.20;;;5.97;;
64031;SDS011;50278;47.796;11.968;2023-04-21T10:18:18;9.00;;;6.55;;
64031;SDS011;50278;47.796;11.968;2023-04-21T10:21:03;7.20;;;6.25;;
64031;SDS011;50278;47.796;11.968;2023-04-21T10:23:38;7.43;;;6.40;;
64031;SDS011;50278;47.796;11.968;2023-04-21T10:26:13;8.48;;;6.20;;
64031;SDS011;50278;47.796;11.968;2023-04-21T10:36:32;5.90;;;5.30;;
64031;SDS011;50278;47.796;11.968;2023-04-21T10:39:02;7.72;;;6.57;;
64031;SDS011;50278;47.796;11.968;2023-04-21T10:41:37;8.02;;;6.10;;
64031;SDS011;50278;47.796;11.968;2023-04-21T10:46:36;7.93;;;6.10;;
64031;SDS011;50278;47.796;11.968;2023-04-21T10:49:07;7.47;;;6.20;;
64031;SDS011;50278;47.796;11.968;2023-04-21T10:54:22;6.60;;;5.70;;
64031;SDS011;50278;47.796;11.968;2023-04-21T10:56:52;5.30;;;4.80;;
64031;SDS011;50278;47.796;11.968;2023-04-21T10:59:19;7.28;;;5.00;;
64031;SDS011;50278;47.796;11.968;2023-04-21T11:01:45;6.03;;;4.68;;
64031;SDS011;50278;47.796;11.968;2023-04-21T11:04:17;9.07;;;5.50;;
64031;SDS011;50278;47.796;11.968;2023-04-21T11:09:29;5.75;;;5.18;;
64031;SDS011;50278;47.796;11.968;2023-04-21T11:12:02;7.63;;;5.30;;
64031;SDS011;50278;47.796;11.968;2023-04-21T11:14:32;6.25;;;4.78;;
64031;SDS011;50278;47.796;11.968;2023-04-21T11:16:59;6.28;;;5.22;;
64031;SDS011;50278;47.796;11.968;2023-04-21T11:19:26;6.55;;;5.15;;
64031;SDS011;50278;47.796;11.968;2023-04-21T11:21:52;5.30;;;4.80;;
64031;SDS011;50278;47.796;11.968;2023-04-21T11:24:21;5.22;;;4.70;;
64031;SDS011;50278;47.796;11.968;2023-04-21T11:26:47;4.47;;;4.07;;
64031;SDS011;50278;47.796;11.968;2023-04-21T11:29:13;4.88;;;4.47;;
64031;SDS011;50278;47.796;11.968;2023-04-21T11:31:40;4.57;;;4.18;;
64031;SDS011;50278;47.796;11.968;2023-04-21T11:34:07;4.35;;;3.95;;
64031;SDS011;50278;47.796;11.968;2023-04-21T11:36:36;4.70;;;4.25;;
64031;SDS011;50278;47.796;11.968;2023-04-21T11:39:04;4.70;;;4.20;;
64031;SDS011;50278;47.796;11.968;2023-04-21T11:41:34;8.10;;;5.28;;
64031;SDS011;50278;47.796;11.968;2023-04-21T11:44:00;5.53;;;4.35;;
64031;SDS011;50278;47.796;11.968;2023-04-21T11:46:26;7.57;;;4.53;;
64031;SDS011;50278;47.796;11.968;2023-04-21T11:49:06;4.18;;;3.78;;
64031;SDS011;50278;47.796;11.968;2023-04-21T11:51:38;4.85;;;4.32;;
64031;SDS011;50278;47.796;11.968;2023-04-21T11:54:08;4.78;;;4.38;;
64031;SDS011;50278;47.796;11.968;2023-04-21T11:56:35;5.75;;;3.80;;
64031;SDS011;50278;47.796;11.968;2023-04-21T11:59:07;4.95;;;3.90;;
64031;SDS011;50278;47.796;11.968;2023-04-21T12:04:12;4.90;;;3.90;;
64031;SDS011;50278;47.796;11.968;2023-04-21T12:06:41;4.55;;;3.13;;
64031;SDS011;50278;47.796;11.968;2023-04-21T12:09:07;3.83;;;3.47;;
64031;SDS011;50278;47.796;11.968;2023-04-21T12:11:40;3.83;;;3.53;;
64031;SDS011;50278;47.796;11.968;2023-04-21T12:14:06;3.67;;;3.30;;
64031;SDS011;50278;47.796;11.968;2023-04-21T12:16:32;5.63;;;3.55;;
64031;SDS011;50278;47.796;11.968;2023-04-21T12:19:00;4.80;;;3.60;;
64031;SDS011;50278;47.796;11.968;2023-04-21T12:21:26;14.20;;;4.25;;
64031;SDS011;50278;47.796;11.968;2023-04-21T12:23:52;4.65;;;3.70;;
64031;SDS011;50278;47.796;11.968;2023-04-21T12:26:18;3.97;;;3.58;;
64031;SDS011;50278;47.796;11.968;2023-04-21T12:28:43;4.43;;;3.92;;
64031;SDS011;50278;47.796;11.968;2023-04-21T12:31:09;3.42;;;3.10;;
64031;SDS011;50278;47.796;11.968;2023-04-21T12:33:35;3.05;;;2.75;;
64031;SDS011;50278;47.796;11.968;2023-04-21T12:36:00;3.60;;;3.08;;
64031;SDS011;50278;47.796;11.968;2023-04-21T12:38:26;4.55;;;2.70;;
64031;SDS011;50278;47.796;11.968;2023-04-21T12:40:52;4.00;;;2.80;;
64031;SDS011;50278;47.796;11.968;2023-04-21T12:43:17;5.30;;;2.90;;
64031;SDS011;50278;47.796;11.968;2023-04-21T12:45:43;3.38;;;2.92;;
64031;SDS011;50278;47.796;11.968;2023-04-21T12:48:08;8.20;;;3.35;;
64031;SDS011;50278;47.796;11.968;2023-04-21T12:50:34;4.57;;;3.53;;
64031;SDS011;50278;47.796;11.968;2023-04-21T12:52:59;2.60;;;2.38;;
64031;SDS011;50278;47.796;11.968;2023-04-21T12:55:25;2.83;;;2.42;;
64031;SDS011;50278;47.796;11.968;2023-04-21T12:57:51;3.35;;;2.30;;
64031;SDS011;50278;47.796;11.968;2023-04-21T13:00:17;2.53;;;2.33;;
64031;SDS011;50278;47.796;11.968;2023-04-21T13:02:43;3.60;;;2.25;;
64031;SDS011;50278;47.796;11.968;2023-04-21T13:05:09;4.45;;;2.40;;
64031;SDS011;50278;47.796;11.968;2023-04-21T13:07:36;2.30;;;2.10;;
64031;SDS011;50278;47.796;11.968;2023-04-21T13:10:04;2.25;;;2.05;;
64031;SDS011;50278;47.796;11.968;2023-04-21T13:12:34;3.40;;;2.30;;
64031;SDS011;50278;47.796;11.968;2023-04-21T13:14:59;4.00;;;2.25;;
64031;SDS011;50278;47.796;11.968;2023-04-21T13:17:25;2.97;;;2.53;;
64031;SDS011;50278;47.796;11.968;2023-04-21T13:19:50;2.53;;;2.17;;
64031;SDS011;50278;47.796;11.968;2023-04-21T13:22:16;2.97;;;1.80;;
64031;SDS011;50278;47.796;11.968;2023-04-21T13:24:42;3.97;;;1.80;;
64031;SDS011;50278;47.796;11.968;2023-04-21T13:27:07;2.22;;;1.60;;
64031;SDS011;50278;47.796;11.968;2023-04-21T13:29:33;1.75;;;1.33;;
64031;SDS011;50278;47.796;11.968;2023-04-21T13:31:59;5.57;;;1.60;;
64031;SDS011;50278;47.796;11.968;2023-04-21T13:34:25;2.05;;;1.40;;
64031;SDS011;50278;47.796;11.968;2023-04-21T13:36:52;3.25;;;1.67;;
64031;SDS011;50278;47.796;11.968;2023-04-21T13:39:17;4.22;;;1.80;;
64031;SDS011;50278;47.796;11.968;2023-04-21T13:41:43;4.38;;;1.27;;
64031;SDS011;50278;47.796;11.968;2023-04-21T13:44:09;5.50;;;1.60;;
64031;SDS011;50278;47.796;11.968;2023-04-21T13:46:35;4.10;;;1.38;;
64031;SDS011;50278;47.796;11.968;2023-04-21T13:49:01;1.65;;;1.27;;
64031;SDS011;50278;47.796;11.968;2023-04-21T13:51:27;1.75;;;1.10;;
64031;SDS011;50278;47.796;11.968;2023-04-21T13:53:54;1.73;;;1.00;;
64031;SDS011;50278;47.796;11.968;2023-04-21T13:56:19;3.22;;;0.90;;
64031;SDS011;50278;47.796;11.968;2023-04-21T13:58:45;2.20;;;1.60;;
64031;SDS011;50278;47.796;11.968;2023-04-21T14:01:12;1.02;;;0.88;;
64031;SDS011;50278;47.796;11.968;2023-04-21T14:03:38;1.70;;;0.82;;
64031;SDS011;50278;47.796;11.968;2023-04-21T14:06:04;1.33;;;0.90;;
64031;SDS011;50278;47.796;11.968;2023-04-21T14:08:30;1.23;;;0.68;;
64031;SDS011;50278;47.796;11.968;2023-04-21T14:10:55;2.92;;;0.98;;
64031;SDS011;50278;47.796;11.968;2023-04-21T14:13:21;0.70;;;0.70;;
64031;SDS011;50278;47.796;11.968;2023-04-21T14:15:48;4.57;;;0.90;;
64031;SDS011;50278;47.796;11.968;2023-04-21T14:18:14;1.13;;;0.70;;
64031;SDS011;50278;47.796;11.968;2023-04-21T14:20:39;2.53;;;0.80;;
64031;SDS011;50278;47.796;11.968;2023-04-21T14:23:05;1.10;;;1.00;;
64031;SDS011;50278;47.796;11.968;2023-04-21T14:25:30;1.50;;;0.73;;
64031;SDS011;50278;47.796;11.968;2023-04-21T14:27:56;2.05;;;0.93;;
64031;SDS011;50278;47.796;11.968;2023-04-21T14:30:21;1.15;;;0.93;;
64031;SDS011;50278;47.796;11.968;2023-04-21T14:32:47;2.55;;;0.98;;
64031;SDS011;50278;47.796;11.968;2023-04-21T14:35:12;2.35;;;1.05;;
64031;SDS011;50278;47.796;11.968;2023-04-21T14:37:38;1.77;;;1.10;;
64031;SDS011;50278;47.796;11.968;2023-04-21T14:40:06;1.15;;;1.05;;
64031;SDS011;50278;47.796;11.968;2023-04-21T14:42:32;1.02;;;0.82;;
64031;SDS011;50278;47.796;11.968;2023-04-21T14:44:58;0.85;;;0.65;;